Hartford, Connecticut
Traffic Map
Current Weather Conditions
Hartford, Connecticut
Clear
Clear
60°
Feels Like: 60°
Wind Chill: 60° Ceiling: Unl
Heat Index: 60° Visibility: 10mi
Dew Point: 29° Wind: 3mph
Humidity: 31% Direction: 190° (S)
Pressure: 30.2in Gusts: 0mph
Raw Report DataKHFD 191853Z 19003KT 10SM CLR 16/M02 A3020 RMK AO2 SLP226 T01561017
Traffic Incident Summary
Active as of:
Severity:
Category:
InformationThere was an issue retrieving the traffic information for this location. Please try a different location or try again shortly.
Advertisements
Track Severe Weather on mobile